Time;durP1;ratioP1;P1;durP2;ratioP2;P2;SDS_P1;SDS_P2;PMS_P1;PMS_P2;Temp;Humidity;BMP_temperature;BMP_pressure;BME280_temperature;BME280_humidity;BME280_pressure;Samples;Min_cycle;Max_cycle;Signal;HPM_P1;HPM_P2
2022/11/19 00:01:09;;;;;;;4.40;3.57;;;12.10;83.80;;;-142.21;100.00;112049.66;5073304;28;21031;-76
2022/11/19 00:03:38;;;;;;;4.37;3.80;;;12.00;83.90;;;-142.21;100.00;112049.66;5075292;28;20489;-73
2022/11/19 00:06:09;;;;;;;6.53;4.10;;;11.90;84.50;;;-142.21;100.00;112049.66;5074189;28;20953;-76
2022/11/19 00:08:37;;;;;;;6.50;3.43;;;11.80;85.00;;;-142.21;100.00;112049.66;5073009;28;20458;-75
2022/11/19 00:11:06;;;;;;;5.77;3.60;;;11.70;85.30;;;-142.21;100.00;112049.66;5068067;28;20439;-75
2022/11/19 00:13:33;;;;;;;7.03;3.80;;;11.70;85.80;;;-142.21;100.00;112049.66;5074570;28;20475;-75
2022/11/19 00:16:06;;;;;;;5.70;3.63;;;11.60;86.30;;;-142.21;100.00;112049.66;5062103;28;20447;-75
2022/11/19 00:18:35;;;;;;;5.63;3.80;;;11.50;86.50;;;-142.21;100.00;112049.66;5063503;28;20467;-74
2022/11/19 00:21:05;;;;;;;5.77;3.67;;;11.50;86.70;;;-142.21;100.00;112049.66;5054344;28;20496;-75
2022/11/19 00:23:32;;;;;;;4.90;3.67;;;11.40;87.00;;;-142.21;100.00;112049.66;5053104;28;21003;-75
2022/11/19 00:26:07;;;;;;;5.40;3.47;;;11.40;87.90;;;-142.21;100.00;112049.66;5057080;28;20451;-75
2022/11/19 00:28:35;;;;;;;5.80;3.83;;;11.50;87.10;;;-142.21;100.00;112049.66;5054757;28;20438;-74
2022/11/19 00:31:05;;;;;;;5.97;3.90;;;11.50;86.90;;;-142.21;100.00;112049.66;5063374;28;20786;-74
2022/11/19 00:33:34;;;;;;;5.60;3.90;;;11.60;86.60;;;-142.21;100.00;112049.66;5074332;28;20528;-74
2022/11/19 00:36:03;;;;;;;7.63;3.37;;;11.70;86.50;;;-142.21;100.00;112049.66;5073117;28;20486;-74
2022/11/19 00:38:31;;;;;;;4.57;2.97;;;11.70;86.20;;;-142.21;100.00;112049.66;5074156;28;20522;-74
2022/11/19 00:40:59;;;;;;;5.70;3.80;;;11.80;86.00;;;-142.21;100.00;112049.66;5072821;28;20443;-74
2022/11/19 00:46:11;;;;;;;3.57;2.83;;;11.80;86.00;;;-142.21;100.00;112049.66;5072426;28;20438;-75
2022/11/19 00:48:40;;;;;;;6.83;3.70;;;11.80;86.00;;;-142.21;100.00;112049.66;5072490;28;20943;-75
2022/11/19 00:51:07;;;;;;;5.13;3.70;;;11.80;85.80;;;-142.21;100.00;112049.66;5073418;28;20534;-75
2022/11/19 00:53:35;;;;;;;4.77;3.70;;;11.80;85.80;;;-142.21;100.00;112049.66;5074024;28;20471;-74
2022/11/19 00:56:04;;;;;;;5.47;4.07;;;11.90;85.80;;;-142.21;100.00;112049.66;5072557;28;20441;-75
2022/11/19 00:58:32;;;;;;;7.20;3.50;;;11.90;85.70;;;-142.21;100.00;112049.66;5065414;28;20532;-75
2022/11/19 01:00:59;;;;;;;4.07;3.50;;;11.90;85.50;;;-142.21;100.00;112049.66;5071835;28;20542;-75
2022/11/19 01:03:28;;;;;;;5.07;3.33;;;12.00;85.50;;;-142.21;100.00;112049.66;5073846;28;20533;-75
2022/11/19 01:05:57;;;;;;;3.90;3.40;;;12.00;85.20;;;-142.21;100.00;112049.66;5072642;28;20538;-74
2022/11/19 01:08:24;;;;;;;4.90;3.50;;;12.10;85.20;;;-142.21;100.00;112049.66;5073190;28;20533;-75
2022/11/19 01:10:51;;;;;;;6.50;3.77;;;12.00;85.10;;;-142.21;100.00;112049.66;5073003;28;20444;-74
2022/11/19 01:13:36;;;;;;;4.93;3.73;;;12.10;84.90;;;-142.21;100.00;112049.66;5072840;28;20530;-74
2022/11/19 01:16:08;;;;;;;4.30;3.37;;;12.00;84.90;;;-142.21;100.00;112049.66;5072275;28;20436;-74
2022/11/19 01:18:37;;;;;;;6.03;3.43;;;12.10;85.00;;;-142.21;100.00;112049.66;5073343;28;20519;-74
2022/11/19 01:21:08;;;;;;;5.03;3.67;;;12.00;84.90;;;-142.21;100.00;112049.66;5072629;28;20467;-74
2022/11/19 01:23:35;;;;;;;3.97;3.57;;;12.00;84.90;;;-142.21;100.00;112049.66;5072184;28;20561;-73
2022/11/19 01:26:03;;;;;;;7.00;3.80;;;12.00;85.00;;;-142.21;100.00;112049.66;5052438;28;20530;-74
2022/11/19 01:28:30;;;;;;;4.57;3.33;;;12.00;84.80;;;-142.21;100.00;112049.66;5073214;28;20457;-74
2022/11/19 01:30:58;;;;;;;6.70;4.03;;;11.90;85.00;;;-142.21;100.00;112049.66;5073426;28;20443;-74
2022/11/19 01:33:25;;;;;;;4.80;3.40;;;11.90;85.20;;;-142.21;100.00;112049.66;5073210;28;20542;-74
2022/11/19 01:35:58;;;;;;;5.57;3.80;;;11.90;85.20;;;-142.21;100.00;112049.66;5071326;28;20446;-74
2022/11/19 01:38:28;;;;;;;7.17;3.57;;;12.00;85.20;;;-142.21;100.00;112049.66;5059732;28;20432;-74
2022/11/19 01:40:56;;;;;;;5.80;4.20;;;11.90;85.10;;;-142.21;100.00;112049.66;5072515;28;20457;-74
2022/11/19 01:43:41;;;;;;;7.50;3.70;;;12.00;85.20;;;-142.21;100.00;112049.66;5058412;28;20470;-74
2022/11/19 01:46:10;;;;;;;5.33;3.50;;;12.00;85.60;;;-142.21;100.00;112049.66;5071048;28;20431;-74
2022/11/19 01:48:40;;;;;;;6.00;3.47;;;12.00;84.70;;;-142.21;100.00;112049.66;5072075;28;20455;-74
2022/11/19 01:51:15;;;;;;;5.93;4.10;;;12.10;84.70;;;-142.21;100.00;112049.66;5072085;28;20439;-74
2022/11/19 01:53:48;;;;;;;5.67;3.90;;;12.00;84.60;;;-142.21;100.00;112049.66;5071880;28;20427;-74
2022/11/19 01:56:20;;;;;;;5.90;3.50;;;12.00;84.80;;;-142.21;100.00;112049.66;5071659;28;20440;-74
2022/11/19 01:58:55;;;;;;;6.00;3.70;;;12.00;85.00;;;-142.21;100.00;112049.66;5063694;28;20443;-74
2022/11/19 02:01:23;;;;;;;5.40;4.30;;;12.00;85.10;;;-142.21;100.00;112049.66;5071933;28;20438;-75
2022/11/19 02:03:52;;;;;;;7.37;4.50;;;11.90;85.30;;;-142.21;100.00;112049.66;5071866;28;20439;-74
2022/11/19 02:06:20;;;;;;;4.80;4.03;;;11.80;85.50;;;-142.21;100.00;112049.66;5069685;28;20505;-74
2022/11/19 02:08:51;;;;;;;5.37;4.50;;;11.80;85.80;;;-142.21;100.00;112049.66;5072360;28;20459;-74
2022/11/19 02:12:00;;;;;;;6.47;4.20;;;11.80;86.00;;;-142.21;100.00;112049.66;5070778;28;20440;-74
2022/11/19 02:15:09;;;;;;;6.57;4.43;;;11.80;86.30;;;-142.21;100.00;112049.66;5049472;28;20435;-74
2022/11/19 02:18:05;;;;;;;7.63;4.40;;;11.80;85.90;;;-142.21;100.00;112049.66;5068723;28;20444;-74
2022/11/19 02:21:08;;;;;;;6.63;4.00;;;11.80;85.90;;;-142.21;100.00;112049.66;5072021;28;20444;-75
2022/11/19 02:24:10;;;;;;;7.20;4.00;;;11.90;85.80;;;-142.21;100.00;112049.66;5067157;28;20471;-75
2022/11/19 02:27:33;;;;;;;6.03;4.10;;;11.90;85.40;;;-142.21;100.00;112049.66;5060005;28;20517;-75
2022/11/19 02:30:11;;;;;;;6.67;3.90;;;12.00;85.50;;;-142.21;100.00;112049.66;5039237;28;20447;-74
2022/11/19 02:32:56;;;;;;;6.70;4.10;;;11.90;85.40;;;-142.21;100.00;112049.66;5072423;28;20461;-74
2022/11/19 02:35:47;;;;;;;6.97;3.97;;;11.90;85.70;;;-142.21;100.00;112049.66;5034401;28;20526;-75
2022/11/19 02:38:26;;;;;;;5.40;3.80;;;11.90;85.50;;;-142.21;100.00;112049.66;5068758;28;20542;-74
2022/11/19 02:41:32;;;;;;;5.83;4.63;;;11.90;85.70;;;-142.21;100.00;112049.66;5072165;28;20435;-74
2022/11/19 02:44:57;;;;;;;6.67;3.97;;;11.90;85.40;;;-142.21;100.00;112049.66;5070792;28;20440;-75
2022/11/19 02:46:53;;;;;;;6.73;3.50;;;12.00;85.40;;;-142.21;100.00;112049.66;5071117;28;20447;-74
2022/11/19 02:49:27;;;;;;;4.37;3.90;;;11.90;85.60;;;-142.21;100.00;112049.66;5071409;28;20478;-75
2022/11/19 02:51:56;;;;;;;6.70;4.10;;;11.90;85.50;;;-142.21;100.00;112049.66;5072000;28;20937;-75
2022/11/19 02:54:23;;;;;;;6.03;3.80;;;11.80;85.70;;;-142.21;100.00;112049.66;5070130;28;20436;-75
2022/11/19 02:56:53;;;;;;;7.23;4.67;;;11.80;85.90;;;-142.21;100.00;112049.66;5070285;28;20447;-75
2022/11/19 03:05:06;;;;;;;5.77;4.50;;;11.70;86.20;;;-142.21;100.00;112049.66;5075380;28;20508;-76
2022/11/19 03:07:34;;;;;;;5.30;4.33;;;11.70;86.50;;;-142.21;100.00;112049.66;5076633;28;20430;-76
2022/11/19 03:10:07;;;;;;;5.23;4.53;;;11.70;86.30;;;-142.21;100.00;112049.66;5075503;28;20461;-75
2022/11/19 03:12:49;;;;;;;5.20;4.20;;;11.70;86.50;;;-142.21;100.00;112049.66;5075937;28;20447;-73
2022/11/19 03:18:26;;;;;;;6.70;4.90;;;11.80;86.40;;;-142.21;100.00;112049.66;5067616;28;20473;-75
2022/11/19 03:21:04;;;;;;;5.30;4.47;;;11.80;86.20;;;-142.21;100.00;112049.66;5075291;28;20521;-74
2022/11/19 03:23:40;;;;;;;6.50;4.87;;;11.90;86.40;;;-142.21;100.00;112049.66;5073249;28;20481;-75
2022/11/19 03:26:18;;;;;;;6.23;4.83;;;11.90;86.40;;;-142.21;100.00;112049.66;5071256;28;20471;-75
2022/11/19 03:28:49;;;;;;;6.30;4.70;;;11.90;86.10;;;-142.21;100.00;112049.66;5069319;28;20445;-74
2022/11/19 03:31:22;;;;;;;7.97;5.03;;;11.90;86.10;;;-142.21;100.00;112049.66;5074922;28;20458;-74
2022/11/19 03:33:56;;;;;;;6.33;4.97;;;12.00;86.20;;;-142.21;100.00;112049.66;5074977;28;20439;-74
2022/11/19 03:36:33;;;;;;;5.63;4.73;;;12.00;86.30;;;-142.21;100.00;112049.66;5074153;28;20435;-75
2022/11/19 03:39:05;;;;;;;5.87;4.73;;;12.00;86.30;;;-142.21;100.00;112049.66;5075165;28;20423;-74
2022/11/19 03:41:37;;;;;;;5.93;4.53;;;12.00;86.90;;;-142.21;100.00;112049.66;5062753;28;20460;-74
2022/11/19 03:44:12;;;;;;;6.47;4.80;;;12.10;86.10;;;-142.21;100.00;112049.66;5059420;28;20439;-74
2022/11/19 03:46:43;;;;;;;6.57;5.23;;;12.00;86.10;;;-142.21;100.00;112049.66;5074003;28;20435;-75
2022/11/19 03:49:15;;;;;;;6.10;5.03;;;12.00;86.40;;;-142.21;100.00;112049.66;5075105;28;20829;-75
2022/11/19 03:51:50;;;;;;;5.10;4.57;;;12.00;86.30;;;-142.21;100.00;112049.66;5075391;28;20453;-75
2022/11/19 03:54:17;;;;;;;6.80;4.57;;;12.00;86.40;;;-142.21;100.00;112049.66;5074231;28;20437;-75
2022/11/19 03:56:47;;;;;;;7.20;4.60;;;12.00;86.20;;;-142.21;100.00;112049.66;5074218;28;20471;-75
2022/11/19 03:59:14;;;;;;;8.13;4.37;;;12.00;86.30;;;-142.21;100.00;112049.66;5072192;28;20445;-75
2022/11/19 04:01:46;;;;;;;6.80;4.83;;;12.00;86.10;;;-142.21;100.00;112049.66;5074553;28;20455;-75
2022/11/19 04:06:59;;;;;;;6.27;4.50;;;12.10;85.90;;;-142.21;100.00;112049.66;5069714;28;20767;-75
2022/11/19 04:09:26;;;;;;;6.00;4.53;;;12.10;85.50;;;-142.21;100.00;112049.66;5073867;28;20524;-74
2022/11/19 04:11:53;;;;;;;8.50;4.83;;;12.10;85.70;;;-142.21;100.00;112049.66;5074898;28;20815;-74
2022/11/19 04:14:20;;;;;;;7.57;4.60;;;12.20;85.80;;;-142.21;100.00;112049.66;5074208;28;20881;-75
2022/11/19 04:16:47;;;;;;;6.43;4.47;;;12.10;85.60;;;-142.21;100.00;112049.66;5072996;28;20450;-75
2022/11/19 04:19:17;;;;;;;5.27;4.70;;;12.10;85.90;;;-142.21;100.00;112049.66;5038064;28;20806;-75
2022/11/19 04:21:44;;;;;;;6.00;4.33;;;12.10;86.00;;;-142.21;100.00;112049.66;5074994;28;20463;-74
2022/11/19 04:24:11;;;;;;;7.27;4.87;;;12.10;86.30;;;-142.21;100.00;112049.66;5073727;28;20475;-75
2022/11/19 04:26:39;;;;;;;5.43;4.70;;;12.10;86.10;;;-142.21;100.00;112049.66;5072862;28;20978;-73
2022/11/19 04:29:06;;;;;;;7.43;4.73;;;12.00;86.30;;;-142.21;100.00;112049.66;5073487;28;20439;-74
2022/11/19 04:31:33;;;;;;;4.87;4.30;;;12.00;86.40;;;-142.21;100.00;112049.66;5073229;28;20491;-75
2022/11/19 04:34:00;;;;;;;5.60;5.00;;;12.00;86.50;;;-142.21;100.00;112049.66;5074398;28;20448;-75
2022/11/19 04:36:29;;;;;;;5.87;4.10;;;12.00;86.60;;;-142.21;100.00;112049.66;5066888;28;20446;-76
2022/11/19 04:38:56;;;;;;;5.67;4.20;;;12.00;87.00;;;-142.21;100.00;112049.66;5064193;28;20447;-75
2022/11/19 04:41:24;;;;;;;6.63;4.53;;;11.90;86.80;;;-142.21;100.00;112049.66;5073993;28;20482;-74
2022/11/19 04:43:51;;;;;;;6.60;4.63;;;12.00;87.10;;;-142.21;100.00;112049.66;5072820;28;20450;-74
2022/11/19 04:46:18;;;;;;;5.93;4.37;;;11.90;87.00;;;-142.21;100.00;112049.66;5073847;28;20562;-74
2022/11/19 04:48:45;;;;;;;6.33;4.93;;;12.00;87.00;;;-142.21;100.00;112049.66;5067940;28;20452;-74
2022/11/19 04:51:12;;;;;;;7.17;4.43;;;12.00;87.00;;;-142.21;100.00;112049.66;5071420;28;20538;-75
2022/11/19 04:53:41;;;;;;;4.73;4.33;;;12.00;87.00;;;-142.21;100.00;112049.66;5074067;28;20458;-75
2022/11/19 04:56:08;;;;;;;7.73;4.77;;;12.00;86.70;;;-142.21;100.00;112049.66;5072607;28;20451;-75
2022/11/19 04:58:36;;;;;;;7.20;4.53;;;12.10;86.70;;;-142.21;100.00;112049.66;5073105;28;20449;-75
2022/11/19 05:01:04;;;;;;;5.50;4.67;;;12.10;86.60;;;-142.21;100.00;112049.66;5072169;28;20440;-74
2022/11/19 05:03:31;;;;;;;6.77;4.70;;;12.10;86.50;;;-142.21;100.00;112049.66;5053815;28;21207;-73
2022/11/19 05:05:59;;;;;;;7.37;4.73;;;12.10;86.40;;;-142.21;100.00;112049.66;5072891;28;20483;-74
2022/11/19 05:08:26;;;;;;;4.90;4.40;;;12.10;86.30;;;-142.21;100.00;112049.66;5072315;28;20440;-73
2022/11/19 05:10:54;;;;;;;5.20;4.40;;;12.10;86.40;;;-142.21;100.00;112049.66;5074201;28;20439;-75
2022/11/19 05:13:21;;;;;;;5.50;4.90;;;12.10;86.30;;;-142.21;100.00;112049.66;5075342;28;20938;-74
2022/11/19 05:15:48;;;;;;;6.37;4.63;;;12.20;86.30;;;-142.21;100.00;112049.66;5073742;28;20534;-75
2022/11/19 05:18:15;;;;;;;9.23;4.57;;;12.20;86.10;;;-142.21;100.00;112049.66;5072567;28;20769;-74
2022/11/19 05:20:42;;;;;;;8.13;5.17;;;12.20;86.00;;;-142.21;100.00;112049.66;5073520;28;20447;-74
2022/11/19 05:23:10;;;;;;;7.10;5.20;;;12.20;85.90;;;-142.21;100.00;112049.66;5074557;28;21004;-75
2022/11/19 05:25:37;;;;;;;7.30;5.30;;;12.20;85.90;;;-142.21;100.00;112049.66;5070929;28;20567;-74
2022/11/19 05:28:05;;;;;;;6.60;5.63;;;12.20;85.90;;;-142.21;100.00;112049.66;5060704;28;20955;-75
2022/11/19 05:30:33;;;;;;;6.00;5.07;;;12.20;86.00;;;-142.21;100.00;112049.66;5072924;28;20465;-74
2022/11/19 05:33:00;;;;;;;6.10;4.93;;;12.10;85.80;;;-142.21;100.00;112049.66;5073861;28;20451;-74
2022/11/19 05:35:27;;;;;;;6.93;5.43;;;12.10;85.90;;;-142.21;100.00;112049.66;5072816;28;20444;-74
2022/11/19 05:37:54;;;;;;;6.23;5.07;;;12.10;86.20;;;-142.21;100.00;112049.66;5037685;28;20448;-75
2022/11/19 05:40:21;;;;;;;6.40;5.47;;;12.00;86.10;;;-142.21;100.00;112049.66;5068479;28;20938;-75
2022/11/19 05:42:48;;;;;;;8.13;5.70;;;12.00;86.20;;;-142.21;100.00;112049.66;5072965;28;20443;-75
2022/11/19 05:45:17;;;;;;;6.77;5.70;;;11.90;86.40;;;-142.21;100.00;112049.66;5072640;28;20485;-74
2022/11/19 05:47:45;;;;;;;9.43;5.50;;;11.90;86.60;;;-142.21;100.00;112049.66;5072515;28;20943;-75
2022/11/19 05:50:12;;;;;;;7.03;5.77;;;12.00;86.60;;;-142.21;100.00;112049.66;5072226;28;20439;-71
2022/11/19 05:52:39;;;;;;;7.93;5.87;;;12.10;86.50;;;-142.21;100.00;112049.66;5073678;28;20801;-74
2022/11/19 05:55:07;;;;;;;7.00;5.70;;;12.00;86.00;;;-142.21;100.00;112049.66;5073178;28;20442;-74
2022/11/19 05:57:35;;;;;;;6.77;5.30;;;12.00;86.50;;;-142.21;100.00;112049.66;5056580;28;20448;-74
2022/11/19 06:00:02;;;;;;;7.13;6.00;;;12.00;86.30;;;-142.21;100.00;112049.66;5067756;28;20486;-75
2022/11/19 06:02:31;;;;;;;7.83;5.83;;;12.00;86.30;;;-142.21;100.00;112049.66;5071380;28;20451;-74
2022/11/19 06:04:58;;;;;;;7.53;5.63;;;12.00;86.50;;;-142.21;100.00;112049.66;5072013;28;20864;-76
2022/11/19 06:07:25;;;;;;;6.60;5.87;;;11.90;86.40;;;-142.21;100.00;112049.66;5072507;28;20542;-73
2022/11/19 06:09:52;;;;;;;8.13;5.93;;;11.90;86.80;;;-142.21;100.00;112049.66;5073101;28;20482;-76
2022/11/19 06:12:19;;;;;;;6.80;5.40;;;11.80;87.20;;;-142.21;100.00;112049.66;5069993;28;21042;-74
2022/11/19 06:14:46;;;;;;;8.33;5.73;;;11.80;87.10;;;-142.21;100.00;112049.66;5072565;28;20451;-75
2022/11/19 06:17:13;;;;;;;7.63;5.90;;;11.80;87.40;;;-142.21;100.00;112049.66;5072078;28;20796;-73
2022/11/19 06:19:43;;;;;;;10.47;6.33;;;11.90;87.50;;;-142.21;100.00;112049.66;5063461;28;20450;-75
2022/11/19 06:22:10;;;;;;;6.17;5.13;;;11.90;87.20;;;-142.21;100.00;112049.66;5072461;28;20463;-75
2022/11/19 06:24:38;;;;;;;6.43;5.40;;;11.80;87.50;;;-142.21;100.00;112049.66;5064750;28;20479;-75
2022/11/19 06:27:05;;;;;;;6.83;5.37;;;11.90;87.60;;;-142.21;100.00;112049.66;5071189;28;20566;-75
2022/11/19 06:29:32;;;;;;;6.63;5.20;;;11.90;87.40;;;-142.21;100.00;112049.66;5070808;28;20443;-74
2022/11/19 06:31:59;;;;;;;8.17;5.50;;;11.90;87.20;;;-142.21;100.00;112049.66;5071595;28;20459;-75
2022/11/19 06:34:26;;;;;;;7.47;5.70;;;11.90;87.20;;;-142.21;100.00;112049.66;5070668;28;20470;-74
2022/11/19 06:36:55;;;;;;;7.87;5.97;;;11.90;87.00;;;-142.21;100.00;112049.66;5072408;28;20802;-75
2022/11/19 06:39:22;;;;;;;6.27;5.63;;;11.90;87.00;;;-142.21;100.00;112049.66;5069849;28;20534;-75
2022/11/19 06:41:49;;;;;;;8.33;5.77;;;11.90;86.90;;;-142.21;100.00;112049.66;5072162;28;20451;-76
2022/11/19 06:44:16;;;;;;;6.77;5.67;;;12.00;87.00;;;-142.21;100.00;112049.66;5064655;28;20535;-74
2022/11/19 06:46:43;;;;;;;7.47;5.47;;;12.00;86.70;;;-142.21;100.00;112049.66;5071717;28;20483;-75
2022/11/19 06:49:11;;;;;;;8.47;5.47;;;12.00;86.90;;;-142.21;100.00;112049.66;5061089;28;20538;-76
2022/11/19 06:51:38;;;;;;;7.83;5.30;;;12.00;86.90;;;-142.21;100.00;112049.66;5071398;28;20443;-76
2022/11/19 06:54:06;;;;;;;9.47;5.40;;;12.00;86.70;;;-142.21;100.00;112049.66;5070232;28;20447;-74
2022/11/19 06:56:34;;;;;;;7.43;5.03;;;12.00;86.70;;;-142.21;100.00;112049.66;5071704;28;20472;-75
2022/11/19 06:59:01;;;;;;;9.27;5.70;;;12.00;86.70;;;-142.21;100.00;112049.66;5071624;28;20538;-75
2022/11/19 07:01:28;;;;;;;8.03;5.27;;;12.00;86.50;;;-142.21;100.00;112049.66;5071176;28;20439;-75
2022/11/19 07:03:55;;;;;;;7.37;5.57;;;12.10;86.40;;;-142.21;100.00;112049.66;5072029;28;20451;-76
2022/11/19 07:06:23;;;;;;;6.53;5.57;;;12.10;86.30;;;-142.21;100.00;112049.66;5068176;28;20490;-75
2022/11/19 07:08:50;;;;;;;7.73;5.43;;;12.10;86.40;;;-142.21;100.00;112049.66;5058707;28;20486;-75
2022/11/19 07:11:28;;;;;;;8.33;5.40;;;12.10;86.00;;;-142.21;100.00;112049.66;5058096;28;20443;-74
2022/11/19 07:13:57;;;;;;;6.53;5.60;;;12.10;86.00;;;-142.21;100.00;112049.66;5071877;28;20450;-75
2022/11/19 07:16:26;;;;;;;8.23;5.87;;;12.10;86.10;;;-142.21;100.00;112049.66;5070694;28;20486;-75
2022/11/19 07:18:53;;;;;;;8.17;5.87;;;12.10;86.30;;;-142.21;100.00;112049.66;5069558;28;20538;-75
2022/11/19 07:21:21;;;;;;;6.10;5.50;;;12.20;86.40;;;-142.21;100.00;112049.66;5071096;28;20534;-75
2022/11/19 07:23:48;;;;;;;6.57;5.67;;;12.20;86.30;;;-142.21;100.00;112049.66;5071343;28;20899;-74
2022/11/19 07:26:15;;;;;;;8.97;5.87;;;12.10;86.20;;;-142.21;100.00;112049.66;5071761;28;20504;-75
2022/11/19 07:28:44;;;;;;;8.80;6.57;;;12.10;86.50;;;-142.21;100.00;112049.66;5071004;28;20449;-75
2022/11/19 07:31:11;;;;;;;9.27;6.40;;;12.10;86.30;;;-142.21;100.00;112049.66;5068659;28;20539;-75
2022/11/19 07:33:38;;;;;;;10.23;6.57;;;12.00;86.60;;;-142.21;100.00;112049.66;5069575;28;20479;-75
2022/11/19 07:36:08;;;;;;;11.87;6.80;;;12.00;86.50;;;-142.21;100.00;112049.66;5071301;28;20977;-75
2022/11/19 07:38:36;;;;;;;7.50;6.20;;;12.10;86.70;;;-142.21;100.00;112049.66;5069900;28;20534;-74
2022/11/19 07:42:47;;;;;;;7.03;5.90;;;12.10;86.60;;;-142.21;100.00;112049.66;5070617;28;20493;-75
2022/11/19 07:43:54;;;;;;;8.57;5.80;;;12.00;86.60;;;-142.21;100.00;112049.66;5070459;28;20502;-75
2022/11/19 07:46:22;;;;;;;8.23;6.17;;;12.10;86.60;;;-142.21;100.00;112049.66;5069351;28;21003;-75
2022/11/19 07:48:54;;;;;;;7.77;6.37;;;12.00;86.50;;;-142.21;100.00;112049.66;5070167;28;20448;-75
2022/11/19 07:51:22;;;;;;;8.23;5.50;;;12.00;86.70;;;-142.21;100.00;112049.66;5074365;28;20477;-75
2022/11/19 07:53:50;;;;;;;8.23;6.30;;;11.90;87.20;;;-142.21;100.00;112049.66;5074447;28;20443;-75
2022/11/19 07:56:17;;;;;;;8.43;6.07;;;11.90;87.30;;;-142.21;100.00;112049.66;5074070;28;20500;-75
2022/11/19 07:58:45;;;;;;;6.90;5.17;;;12.00;87.10;;;-142.21;100.00;112049.66;5074469;28;20550;-75
2022/11/19 08:01:17;;;;;;;8.17;5.80;;;12.10;87.20;;;-142.21;100.00;112049.66;5073097;28;20542;-75
2022/11/19 08:03:46;;;;;;;7.00;5.80;;;12.10;86.80;;;-142.21;100.00;112049.66;5073080;28;20895;-74
2022/11/19 08:06:14;;;;;;;6.30;4.83;;;12.00;86.90;;;-142.21;100.00;112049.66;5067149;28;20475;-75
2022/11/19 08:08:41;;;;;;;6.13;5.47;;;12.00;87.10;;;-142.21;100.00;112049.66;5073799;28;20443;-75
2022/11/19 08:11:11;;;;;;;8.30;5.50;;;12.00;87.00;;;-142.21;100.00;112049.66;5074798;28;20459;-75
2022/11/19 08:13:39;;;;;;;8.23;5.57;;;12.00;87.10;;;-142.21;100.00;112049.66;5074380;28;20517;-75
2022/11/19 08:16:09;;;;;;;7.80;5.33;;;11.90;87.00;;;-142.21;100.00;112049.66;5073083;28;20443;-75
2022/11/19 08:18:37;;;;;;;6.03;5.43;;;12.00;88.10;;;-142.21;100.00;112049.66;5073335;28;20439;-74
2022/11/19 08:21:06;;;;;;;7.10;5.33;;;12.10;87.20;;;-142.21;100.00;112049.66;5074439;28;20470;-74
2022/11/19 08:23:34;;;;;;;8.13;5.43;;;12.10;87.20;;;-142.21;100.00;112049.66;5072803;28;20554;-74
2022/11/19 08:26:01;;;;;;;6.93;5.43;;;12.10;86.70;;;-142.21;100.00;112049.66;5075051;28;20603;-74
2022/11/19 08:28:30;;;;;;;8.73;5.30;;;12.10;86.40;;;-142.21;100.00;112049.66;5072955;28;20443;-75
2022/11/19 08:31:04;;;;;;;9.17;5.37;;;12.00;87.00;;;-142.21;100.00;112049.66;5073729;28;20450;-75
2022/11/19 08:33:31;;;;;;;6.57;4.70;;;12.10;86.70;;;-142.21;100.00;112049.66;5074115;28;20534;-74
2022/11/19 08:36:00;;;;;;;7.43;5.03;;;12.20;86.50;;;-142.21;100.00;112049.66;5074219;28;20872;-75
2022/11/19 08:38:27;;;;;;;6.67;5.20;;;12.20;86.60;;;-142.21;100.00;112049.66;5072881;28;20501;-75
2022/11/19 08:42:58;;;;;;;5.10;4.57;;;12.20;86.50;;;-142.21;100.00;112049.66;5074336;28;20991;-75
2022/11/19 08:43:42;;;;;;;5.10;4.60;;;12.20;86.50;;;-142.21;100.00;112049.66;5072473;28;20446;-74
2022/11/19 08:46:09;;;;;;;8.93;4.87;;;12.20;86.40;;;-142.21;100.00;112049.66;5073333;28;20483;-74
2022/11/19 08:48:36;;;;;;;7.03;4.63;;;12.30;86.20;;;-142.21;100.00;112049.66;5071269;28;20451;-74
2022/11/19 08:51:06;;;;;;;6.63;3.93;;;12.20;86.00;;;-142.21;100.00;112049.66;5074082;28;20471;-74
2022/11/19 08:53:36;;;;;;;10.60;4.67;;;12.30;86.30;;;-142.21;100.00;112049.66;5072900;28;20435;-74
2022/11/19 08:56:05;;;;;;;5.30;4.20;;;12.30;86.00;;;-142.21;100.00;112049.66;5069440;28;20534;-74
2022/11/19 08:58:32;;;;;;;6.07;3.90;;;12.50;85.80;;;-142.21;100.00;112049.66;5072582;28;20512;-74
2022/11/19 09:01:00;;;;;;;8.03;3.53;;;12.30;84.80;;;-142.21;100.00;112049.66;5072994;28;20477;-74
2022/11/19 09:03:27;;;;;;;6.97;3.70;;;12.30;84.50;;;-142.21;100.00;112049.66;5071525;28;20879;-74
2022/11/19 09:05:59;;;;;;;5.40;3.37;;;12.30;85.10;;;-142.21;100.00;112049.66;5059814;28;20448;-74
2022/11/19 09:08:28;;;;;;;5.73;3.80;;;12.30;84.50;;;-142.21;100.00;112049.66;5072494;28;20447;-74
2022/11/19 09:10:56;;;;;;;5.13;3.40;;;12.30;84.40;;;-142.21;100.00;112049.66;5071943;28;20973;-75
2022/11/19 09:13:23;;;;;;;5.03;3.47;;;12.50;84.50;;;-142.21;100.00;112049.66;5067885;28;20443;-74
2022/11/19 09:15:51;;;;;;;5.77;3.47;;;12.50;84.00;;;-142.21;100.00;112049.66;5073835;28;20488;-75
2022/11/19 09:18:18;;;;;;;5.37;3.63;;;12.50;83.80;;;-142.21;100.00;112049.66;5073009;28;20446;-75
2022/11/19 09:20:45;;;;;;;6.80;3.93;;;12.40;83.60;;;-142.21;100.00;112049.66;5071699;28;20538;-75
2022/11/19 09:23:12;;;;;;;7.90;3.57;;;12.50;84.20;;;-142.21;100.00;112049.66;5073039;28;20484;-75
2022/11/19 09:25:41;;;;;;;3.53;3.23;;;12.40;83.20;;;-142.21;100.00;112049.66;5073487;28;20436;-75
2022/11/19 09:28:10;;;;;;;4.97;3.00;;;12.30;83.60;;;-142.21;100.00;112049.66;5072368;28;20483;-75
2022/11/19 09:30:37;;;;;;;5.33;3.10;;;12.30;84.00;;;-142.21;100.00;112049.66;5069984;28;20943;-75
2022/11/19 09:33:04;;;;;;;4.83;3.83;;;12.40;84.20;;;-142.21;100.00;112049.66;5072025;28;20585;-74
2022/11/19 09:35:31;;;;;;;6.50;3.77;;;12.40;83.80;;;-142.21;100.00;112049.66;5072414;28;20448;-74
2022/11/19 09:37:58;;;;;;;5.43;3.40;;;12.30;84.70;;;-142.21;100.00;112049.66;5072228;28;20527;-76
2022/11/19 09:40:25;;;;;;;6.90;3.83;;;12.10;84.40;;;-142.21;100.00;112049.66;5072507;28;20522;-76
2022/11/19 09:43:08;;;;;;;5.87;4.23;;;12.20;85.30;;;-142.21;100.00;112049.66;5063753;28;20535;-73
2022/11/19 09:45:53;;;;;;;6.03;3.83;;;12.20;85.30;;;-142.21;100.00;112049.66;5071563;28;20981;-75
2022/11/19 09:48:33;;;;;;;6.83;3.80;;;12.10;85.30;;;-142.21;100.00;112049.66;5072895;28;20472;-74
2022/11/19 09:51:09;;;;;;;7.07;4.00;;;12.10;85.60;;;-142.21;100.00;112049.66;5066804;28;21085;-74
2022/11/19 09:53:44;;;;;;;4.70;4.10;;;12.10;85.40;;;-142.21;100.00;112049.66;5066393;28;20447;-75
2022/11/19 09:56:18;;;;;;;5.83;4.30;;;12.00;85.60;;;-142.21;100.00;112049.66;5069061;28;20518;-75
2022/11/19 09:58:46;;;;;;;7.97;4.60;;;11.90;86.10;;;-142.21;100.00;112049.66;5072090;28;20521;-75
2022/11/19 10:01:16;;;;;;;5.53;3.93;;;11.90;86.80;;;-142.21;100.00;112049.66;5061865;28;20447;-73
2022/11/19 10:03:48;;;;;;;7.90;4.47;;;12.00;86.40;;;-142.21;100.00;112049.66;5069651;28;20535;-74
2022/11/19 10:06:28;;;;;;;5.43;4.23;;;12.00;86.50;;;-142.21;100.00;112049.66;5064313;28;20888;-75
2022/11/19 10:09:22;;;;;;;5.33;3.90;;;11.90;87.00;;;-142.21;100.00;112049.66;5072658;28;20813;-74
2022/11/19 10:12:03;;;;;;;5.70;3.87;;;12.00;87.00;;;-142.21;100.00;112049.66;5061024;28;21008;-75
2022/11/19 10:14:58;;;;;;;6.03;4.60;;;12.00;86.80;;;-142.21;100.00;112049.66;5062296;28;20483;-74
2022/11/19 10:17:40;;;;;;;4.77;3.80;;;12.00;86.50;;;-142.21;100.00;112049.66;5071285;28;20519;-76
2022/11/19 10:20:25;;;;;;;4.77;3.63;;;12.10;86.60;;;-142.21;100.00;112049.66;5070780;28;20485;-75
2022/11/19 10:23:03;;;;;;;6.73;4.20;;;12.10;86.80;;;-142.21;100.00;112049.66;5072182;28;20470;-75